Time;durP1;ratioP1;P1;durP2;ratioP2;P2;SDS_P1;SDS_P2;PMS_P1;PMS_P2;Temp;Humidity;BMP_temperature;BMP_pressure;BME280_temperature;BME280_humidity;BME280_pressure;Samples;Min_cycle;Max_cycle;Signal;HPM_P1;HPM_P2
2023/10/09 00:03:01;;;;;;;10.15;5.63;;;13.80;99.90;;;;;;5033109;28;20118;-64
2023/10/09 00:05:39;;;;;;;8.75;5.28;;;13.90;99.90;;;;;;5033461;28;20045;-65
2023/10/09 00:08:08;;;;;;;10.10;5.57;;;13.80;99.90;;;;;;5045865;28;20053;-64
2023/10/09 00:10:45;;;;;;;10.73;6.03;;;13.80;99.90;;;;;;5052917;28;20045;-64
2023/10/09 00:13:12;;;;;;;12.13;5.93;;;13.80;99.90;;;;;;5052603;28;20053;-63
2023/10/09 00:15:38;;;;;;;12.05;6.30;;;13.80;99.90;;;;;;5035431;28;20048;-65
2023/10/09 00:18:11;;;;;;;13.35;7.10;;;13.80;99.90;;;;;;5040924;28;20046;-62
2023/10/09 00:20:42;;;;;;;10.98;6.35;;;13.80;99.90;;;;;;5033420;28;20041;-64
2023/10/09 00:23:15;;;;;;;12.88;6.65;;;13.80;99.90;;;;;;5015375;28;20058;-65
2023/10/09 00:28:51;;;;;;;15.10;8.57;;;13.80;99.90;;;;;;5037799;28;20037;-63
2023/10/09 00:31:28;;;;;;;12.25;7.28;;;13.80;99.90;;;;;;5053077;28;20306;-63
2023/10/09 00:33:54;;;;;;;14.30;8.02;;;13.80;99.90;;;;;;5052451;28;20135;-65
2023/10/09 00:36:28;;;;;;;15.73;8.68;;;13.90;99.90;;;;;;5035052;28;20060;-65
2023/10/09 00:38:54;;;;;;;13.77;7.85;;;13.90;99.90;;;;;;5033428;28;20493;-65
2023/10/09 00:41:24;;;;;;;16.02;8.13;;;13.90;99.90;;;;;;5032321;28;20041;-64
2023/10/09 00:43:52;;;;;;;15.10;8.50;;;13.90;99.90;;;;;;5032076;28;20049;-65
2023/10/09 00:48:49;;;;;;;15.23;8.77;;;13.90;99.90;;;;;;5029734;28;20081;-65
2023/10/09 00:51:17;;;;;;;17.02;9.68;;;13.90;99.90;;;;;;5031801;28;20064;-65
2023/10/09 00:53:51;;;;;;;16.92;10.27;;;13.90;99.90;;;;;;5032843;28;20421;-65
2023/10/09 00:58:59;;;;;;;18.58;10.50;;;13.90;99.90;;;;;;5014955;28;20467;-65
2023/10/09 01:01:36;;;;;;;19.15;10.75;;;13.80;99.90;;;;;;5013137;28;20442;-65
2023/10/09 01:04:14;;;;;;;19.25;9.90;;;13.80;99.90;;;;;;5012746;28;20050;-64
2023/10/09 01:06:43;;;;;;;18.98;10.88;;;13.80;99.90;;;;;;5013502;28;20487;-64
2023/10/09 01:09:14;;;;;;;19.23;11.68;;;13.90;99.90;;;;;;5012905;28;20054;-64
2023/10/09 01:14:25;;;;;;;22.23;12.20;;;13.80;99.90;;;;;;5013305;28;20056;-63
2023/10/09 01:16:54;;;;;;;22.73;12.05;;;13.80;99.90;;;;;;5029614;28;20057;-65
2023/10/09 01:19:23;;;;;;;23.98;12.48;;;13.80;99.90;;;;;;5029189;28;20402;-64
2023/10/09 01:21:51;;;;;;;21.42;12.38;;;13.80;99.90;;;;;;5014083;28;20073;-64
2023/10/09 01:24:19;;;;;;;24.65;12.65;;;13.90;99.90;;;;;;5012740;28;20057;-64
2023/10/09 01:26:47;;;;;;;23.73;12.93;;;13.90;99.90;;;;;;5013464;28;20053;-64
2023/10/09 01:29:21;;;;;;;26.55;13.20;;;13.90;99.90;;;;;;5030943;28;20462;-64
2023/10/09 01:32:00;;;;;;;24.27;13.00;;;13.90;99.90;;;;;;5032858;28;20148;-63
2023/10/09 01:37:22;;;;;;;24.67;14.50;;;13.90;99.90;;;;;;5027978;28;20038;-64
2023/10/09 01:39:57;;;;;;;27.25;13.70;;;13.90;99.90;;;;;;5012922;28;20124;-64
2023/10/09 01:45:10;;;;;;;22.92;13.70;;;13.90;99.90;;;;;;5012547;28;20057;-64
2023/10/09 01:47:37;;;;;;;26.92;15.02;;;13.90;99.90;;;;;;5021554;28;20053;-63
2023/10/09 01:50:06;;;;;;;29.67;15.48;;;13.90;99.90;;;;;;5032175;28;20072;-63
2023/10/09 01:52:37;;;;;;;26.92;14.88;;;13.90;99.90;;;;;;5031829;28;20080;-63
2023/10/09 01:55:09;;;;;;;29.67;16.30;;;14.00;99.90;;;;;;5031319;28;20065;-63
2023/10/09 01:57:39;;;;;;;30.10;16.48;;;14.10;99.90;;;;;;5031471;28;20328;-64
2023/10/09 02:00:07;;;;;;;31.13;15.90;;;14.00;99.90;;;;;;5031985;28;20049;-64
2023/10/09 02:02:33;;;;;;;31.00;16.98;;;14.10;99.90;;;;;;5031093;28;20407;-63
2023/10/09 02:07:51;;;;;;;33.70;16.70;;;14.10;99.90;;;;;;5030653;28;20046;-62
2023/10/09 02:13:06;;;;;;;;;;;14.10;99.90;;;;;;5031148;28;20540;-65
2023/10/09 02:18:27;;;;;;;29.90;18.52;;;14.10;99.90;;;;;;5010046;28;20045;-65
2023/10/09 02:23:38;;;;;;;33.67;18.00;;;14.10;99.90;;;;;;5030722;28;20053;-64
2023/10/09 02:26:06;;;;;;;32.38;19.63;;;14.10;99.90;;;;;;5031617;28;20041;-64
2023/10/09 02:28:33;;;;;;;37.25;19.52;;;14.10;99.90;;;;;;5030969;28;20045;-65
2023/10/09 02:31:09;;;;;;;34.78;19.08;;;14.20;99.90;;;;;;5030808;28;20038;-63
2023/10/09 02:33:36;;;;;;;34.95;19.05;;;14.20;99.90;;;;;;5029547;28;20056;-67
2023/10/09 02:36:05;;;;;;;35.13;19.40;;;14.30;99.90;;;;;;5030821;28;20045;-64
2023/10/09 02:38:40;;;;;;;36.50;20.80;;;14.20;99.90;;;;;;5031090;28;20052;-65
2023/10/09 02:43:44;;;;;;;39.58;20.10;;;14.30;99.90;;;;;;5030097;28;20477;-65
2023/10/09 02:46:17;;;;;;;;;;;14.40;99.90;;;;;;5031492;28;20503;-64
2023/10/09 02:48:51;;;;;;;34.25;19.30;;;14.30;99.90;;;;;;5030665;28;19971;-63
2023/10/09 02:53:58;;;;;;;36.88;21.13;;;14.30;99.90;;;;;;5029920;28;20122;-63
2023/10/09 02:56:40;;;;;;;41.22;20.67;;;14.30;99.90;;;;;;5046219;28;20119;-62
2023/10/09 02:59:07;;;;;;;39.42;21.42;;;14.40;99.90;;;;;;5030960;28;20053;-65
2023/10/09 03:01:34;;;;;;;42.35;21.95;;;14.40;99.90;;;;;;5031306;28;20045;-64
2023/10/09 03:04:05;;;;;;;41.20;21.75;;;14.50;99.90;;;;;;5046423;28;20057;-63
2023/10/09 03:06:35;;;;;;;42.42;22.98;;;14.50;99.90;;;;;;5031234;28;20053;-65
2023/10/09 03:09:16;;;;;;;43.55;22.67;;;14.60;99.90;;;;;;5030968;28;20072;-64
2023/10/09 03:11:48;;;;;;;47.88;22.85;;;14.60;99.90;;;;;;5031297;28;20061;-65
2023/10/09 03:14:16;;;;;;;42.55;24.45;;;14.60;99.90;;;;;;5030239;28;20424;-65
2023/10/09 03:16:43;;;;;;;41.97;22.92;;;14.70;99.90;;;;;;5031294;28;20041;-65
2023/10/09 03:19:10;;;;;;;42.72;21.52;;;14.70;99.90;;;;;;5029984;28;20045;-64
2023/10/09 03:21:37;;;;;;;40.88;22.88;;;14.70;99.90;;;;;;5030919;28;20111;-64
2023/10/09 03:24:06;;;;;;;39.67;22.50;;;14.70;99.90;;;;;;5030541;28;20053;-66
2023/10/09 03:26:32;;;;;;;39.15;22.40;;;14.80;99.90;;;;;;5030660;28;20446;-63
2023/10/09 03:29:06;;;;;;;42.17;22.08;;;14.70;99.90;;;;;;5030548;28;20053;-64
2023/10/09 03:31:33;;;;;;;41.42;21.30;;;14.70;99.90;;;;;;5031115;28;20485;-64
2023/10/09 03:34:00;;;;;;;37.53;21.63;;;14.80;99.90;;;;;;5030454;28;20046;-65
2023/10/09 03:36:26;;;;;;;40.92;20.77;;;14.70;99.90;;;;;;5030793;28;20045;-65
2023/10/09 03:38:58;;;;;;;42.15;22.42;;;14.90;99.90;;;;;;5030176;28;20520;-63
2023/10/09 03:41:29;;;;;;;36.92;21.05;;;14.90;99.90;;;;;;5030499;28;20517;-64
2023/10/09 03:43:55;;;;;;;39.20;22.00;;;14.80;99.90;;;;;;5029972;28;20056;-65
2023/10/09 03:46:25;;;;;;;40.25;22.05;;;14.90;99.90;;;;;;5030556;28;20053;-67
2023/10/09 03:48:53;;;;;;;37.72;22.80;;;15.00;99.90;;;;;;5030249;28;20323;-64
2023/10/09 03:51:23;;;;;;;42.70;22.42;;;15.00;99.90;;;;;;5029506;28;20069;-63
2023/10/09 03:53:52;;;;;;;42.13;22.08;;;15.10;99.90;;;;;;5029325;28;20041;-63
2023/10/09 03:56:21;;;;;;;36.65;21.13;;;15.10;99.90;;;;;;5030313;28;20088;-65
2023/10/09 03:58:49;;;;;;;40.45;23.05;;;15.20;99.90;;;;;;5030230;28;20046;-64
2023/10/09 04:01:24;;;;;;;36.30;21.48;;;15.20;99.90;;;;;;5030123;28;20338;-62
2023/10/09 04:03:59;;;;;;;41.90;22.92;;;15.30;99.90;;;;;;5030240;28;20054;-64
2023/10/09 04:06:33;;;;;;;40.45;20.75;;;15.40;99.90;;;;;;5033394;28;20053;-64
2023/10/09 04:11:46;;;;;;;39.08;21.67;;;15.40;99.90;;;;;;5033777;28;20054;-64
2023/10/09 04:14:26;;;;;;;34.95;21.00;;;15.50;99.90;;;;;;5033412;28;20054;-62
2023/10/09 04:16:52;;;;;;;39.35;21.48;;;15.50;99.90;;;;;;5034495;28;20111;-65
2023/10/09 04:19:22;;;;;;;35.97;22.00;;;15.60;99.90;;;;;;5015877;28;20128;-64
2023/10/09 04:21:48;;;;;;;34.22;20.40;;;15.60;99.90;;;;;;5033453;28;20481;-65
2023/10/09 04:26:44;;;;;;;34.28;20.05;;;15.70;99.90;;;;;;5033469;28;20123;-66
2023/10/09 04:29:18;;;;;;;38.85;19.98;;;15.60;99.90;;;;;;5033176;28;20365;-63
2023/10/09 04:31:51;;;;;;;34.00;21.10;;;15.70;99.90;;;;;;5033358;28;20354;-63
2023/10/09 04:34:22;;;;;;;40.47;20.60;;;15.70;99.90;;;;;;5032407;28;20046;-64
2023/10/09 04:36:49;;;;;;;34.17;20.55;;;15.70;99.90;;;;;;5033737;28;20107;-66
2023/10/09 04:39:35;;;;;;;32.60;18.70;;;15.70;99.90;;;;;;5033740;28;20094;-65
2023/10/09 04:45:19;;;;;;;27.30;16.13;;;15.80;99.90;;;;;;5033334;28;20084;-64
2023/10/09 04:47:58;;;;;;;29.40;16.20;;;15.80;99.90;;;;;;5032786;28;20128;-64
2023/10/09 04:53:13;;;;;;;26.52;14.20;;;15.90;99.90;;;;;;5032774;28;20057;-64
2023/10/09 04:55:44;;;;;;;28.17;15.00;;;16.00;99.90;;;;;;5032725;28;20050;-65
2023/10/09 04:58:23;;;;;;;22.95;14.68;;;15.90;99.90;;;;;;5032468;28;20046;-65
2023/10/09 05:01:04;;;;;;;22.45;14.30;;;15.90;99.90;;;;;;5024054;28;20052;-65
2023/10/09 05:03:56;;;;;;;24.88;14.57;;;16.00;99.90;;;;;;5024915;28;20050;-63
2023/10/09 05:09:13;;;;;;;23.05;13.95;;;16.10;99.90;;;;;;5022562;28;20061;-65
2023/10/09 05:14:26;;;;;;;22.55;12.90;;;16.00;99.90;;;;;;5028371;28;20465;-64
2023/10/09 05:16:54;;;;;;;22.13;12.00;;;16.10;99.90;;;;;;5030355;28;20066;-65
2023/10/09 05:19:41;;;;;;;23.38;11.80;;;16.20;99.90;;;;;;5032412;28;20053;-64
2023/10/09 05:22:16;;;;;;;20.63;11.63;;;16.10;99.90;;;;;;5031635;28;20114;-65
2023/10/09 05:24:47;;;;;;;21.45;11.30;;;16.20;99.90;;;;;;5031599;28;20064;-66
2023/10/09 05:27:24;;;;;;;23.40;12.50;;;16.20;99.90;;;;;;5030893;28;20080;-65
2023/10/09 05:29:59;;;;;;;19.00;13.55;;;16.30;99.90;;;;;;5032100;28;20381;-64
2023/10/09 05:32:34;;;;;;;19.85;12.73;;;16.30;99.90;;;;;;5030420;28;20123;-63
2023/10/09 05:37:43;;;;;;;20.23;12.07;;;16.40;99.90;;;;;;5031472;28;20119;-64
2023/10/09 05:42:43;;;;;;;21.08;11.48;;;16.40;99.90;;;;;;5031432;28;20042;-63
2023/10/09 05:47:56;;;;;;;17.60;10.98;;;16.40;99.90;;;;;;5041059;28;20059;-64
2023/10/09 06:03:25;;;;;;;15.30;8.68;;;16.50;99.90;;;;;;5049601;28;20048;-64
2023/10/09 06:14:02;;;;;;;15.90;8.40;;;16.50;99.90;;;;;;5051315;28;20155;-64
2023/10/09 06:19:12;;;;;;;19.13;9.60;;;16.60;99.90;;;;;;5049850;28;20535;-64
2023/10/09 06:24:14;;;;;;;17.80;10.07;;;16.60;99.90;;;;;;5050848;28;20125;-63
2023/10/09 06:29:38;;;;;;;19.15;8.98;;;16.50;99.90;;;;;;5047165;28;20049;-65
2023/10/09 06:34:52;;;;;;;22.17;10.45;;;16.50;99.90;;;;;;5033868;28;20128;-65
2023/10/09 06:42:43;;;;;;;16.27;9.10;;;16.60;99.90;;;;;;5033059;28;20063;-65
2023/10/09 06:47:41;;;;;;;17.52;9.00;;;16.60;99.90;;;;;;5045954;28;20441;-64
2023/10/09 06:55:51;;;;;;;17.45;8.40;;;16.70;99.90;;;;;;5052179;28;20041;-65
2023/10/09 06:58:28;;;;;;;16.65;8.32;;;16.70;99.90;;;;;;5051231;28;20045;-63
2023/10/09 07:03:34;;;;;;;16.35;7.47;;;16.70;99.90;;;;;;5051948;28;20106;-63
2023/10/09 07:17:15;;;;;;;21.67;8.38;;;16.70;99.90;;;;;;5014610;28;20060;-63
2023/10/09 07:24:49;;;;;;;13.80;8.73;;;16.80;99.90;;;;;;5049922;28;20346;-64
2023/10/09 07:30:35;;;;;;;14.38;8.32;;;16.90;99.90;;;;;;5052075;28;20096;-63
2023/10/09 07:38:19;;;;;;;17.05;8.43;;;17.00;99.90;;;;;;5030224;28;20045;-64
2023/10/09 07:40:59;;;;;;;16.40;8.45;;;17.00;99.90;;;;;;5034424;28;20045;-63
2023/10/09 07:43:39;;;;;;;15.50;8.48;;;16.90;99.90;;;;;;5036166;28;20338;-62
2023/10/09 07:46:30;;;;;;;17.02;8.98;;;17.00;99.90;;;;;;5055272;28;20355;-64
2023/10/09 07:48:55;;;;;;;13.52;7.88;;;17.10;99.90;;;;;;5039571;28;20362;-64
2023/10/09 07:51:30;;;;;;;12.30;7.82;;;17.00;99.90;;;;;;5035843;28;20405;-63
2023/10/09 07:54:06;;;;;;;17.83;7.03;;;17.10;99.90;;;;;;5035534;28;20052;-63
2023/10/09 07:56:46;;;;;;;16.77;7.20;;;17.10;99.90;;;;;;5034989;28;20464;-64
2023/10/09 07:59:19;;;;;;;15.68;7.90;;;17.10;99.90;;;;;;5052048;28;20467;-62
2023/10/09 08:02:05;;;;;;;13.88;7.72;;;17.20;99.90;;;;;;5055265;28;20060;-63
2023/10/09 08:04:37;;;;;;;12.73;7.65;;;17.20;99.90;;;;;;5055490;28;20059;-62
2023/10/09 08:07:19;;;;;;;18.15;8.25;;;17.20;99.90;;;;;;5054600;28;20045;-63
2023/10/09 08:09:48;;;;;;;13.77;7.47;;;17.10;99.90;;;;;;5034575;28;20057;-63
2023/10/09 08:12:39;;;;;;;14.30;8.35;;;17.10;99.90;;;;;;5035257;28;20046;-62
2023/10/09 08:18:03;;;;;;;14.00;7.78;;;17.20;99.90;;;;;;5039913;28;20116;-63
2023/10/09 08:23:28;;;;;;;16.55;8.38;;;17.40;99.90;;;;;;5037503;28;20071;-63
2023/10/09 08:26:13;;;;;;;21.48;9.60;;;17.30;99.90;;;;;;5054868;28;20048;-64
2023/10/09 08:28:45;;;;;;;19.95;9.02;;;17.30;99.90;;;;;;5041744;28;20547;-63
2023/10/09 08:31:34;;;;;;;15.52;8.85;;;17.50;99.90;;;;;;5035156;28;20053;-63
2023/10/09 08:34:01;;;;;;;13.38;7.05;;;17.30;99.90;;;;;;5034767;28;20049;-64
2023/10/09 08:36:28;;;;;;;17.88;7.55;;;17.50;99.90;;;;;;5034562;28;20104;-62
2023/10/09 08:38:58;;;;;;;16.13;7.57;;;17.50;99.90;;;;;;5032003;28;20049;-63
2023/10/09 08:41:29;;;;;;;16.15;8.05;;;17.50;99.90;;;;;;5054912;28;20048;-63
2023/10/09 08:43:57;;;;;;;17.95;8.45;;;17.60;99.90;;;;;;5053653;28;20045;-63
2023/10/09 08:46:28;;;;;;;15.77;7.85;;;17.50;99.90;;;;;;5034811;28;20053;-63
2023/10/09 08:48:56;;;;;;;15.00;7.95;;;17.50;99.90;;;;;;5048832;28;20426;-65
2023/10/09 08:51:25;;;;;;;17.17;7.47;;;17.50;99.90;;;;;;5052263;28;20705;-64
2023/10/09 08:53:52;;;;;;;12.50;7.38;;;17.60;99.90;;;;;;5036592;28;20114;-64
2023/10/09 08:56:23;;;;;;;16.15;8.02;;;17.60;99.90;;;;;;5036498;28;20068;-62
2023/10/09 08:58:55;;;;;;;16.60;8.45;;;17.50;99.90;;;;;;5053420;28;20056;-61
2023/10/09 09:01:24;;;;;;;16.50;7.03;;;17.70;99.90;;;;;;5054144;28;20060;-63
2023/10/09 09:03:55;;;;;;;15.90;7.78;;;17.60;99.90;;;;;;5053497;28;20045;-64
2023/10/09 09:06:23;;;;;;;14.50;7.13;;;17.60;99.90;;;;;;5053670;28;20429;-64
2023/10/09 09:08:54;;;;;;;16.67;7.97;;;17.60;99.90;;;;;;5040343;28;20112;-64
2023/10/09 09:11:24;;;;;;;16.15;7.55;;;17.60;99.90;;;;;;5034066;28;20049;-65
2023/10/09 09:13:53;;;;;;;14.80;8.23;;;17.60;99.90;;;;;;5034258;28;20056;-64
2023/10/09 09:16:30;;;;;;;15.48;7.40;;;17.50;99.90;;;;;;5036383;28;20048;-63
2023/10/09 09:19:00;;;;;;;15.07;6.70;;;17.60;99.90;;;;;;5039061;28;20060;-64
2023/10/09 09:21:38;;;;;;;15.13;7.20;;;17.50;99.90;;;;;;5034106;28;20076;-62
2023/10/09 09:24:15;;;;;;;15.15;7.25;;;17.50;99.90;;;;;;5034335;28;20046;-64
2023/10/09 09:26:45;;;;;;;14.05;7.07;;;17.60;99.90;;;;;;5033681;28;20068;-64
2023/10/09 09:29:13;;;;;;;16.33;7.05;;;17.50;99.90;;;;;;5049873;28;20056;-63
2023/10/09 09:31:57;;;;;;;13.80;6.60;;;17.60;99.90;;;;;;5020190;28;20057;-63
2023/10/09 09:34:48;;;;;;;14.38;7.13;;;17.70;99.90;;;;;;5036210;28;20439;-64
2023/10/09 09:37:21;;;;;;;15.07;6.97;;;17.50;99.90;;;;;;5053021;28;20045;-64
2023/10/09 09:39:51;;;;;;;13.68;6.72;;;17.70;99.90;;;;;;5033463;28;20462;-63
2023/10/09 09:42:24;;;;;;;17.48;7.50;;;17.80;99.90;;;;;;5033605;28;20152;-64
2023/10/09 09:44:55;;;;;;;15.60;7.32;;;17.70;99.90;;;;;;5043165;28;20366;-64
2023/10/09 09:47:27;;;;;;;20.02;6.57;;;17.80;99.90;;;;;;5051205;28;20084;-66
2023/10/09 09:50:01;;;;;;;15.95;6.70;;;17.80;99.90;;;;;;5032967;28;20128;-63
2023/10/09 09:52:38;;;;;;;12.65;6.53;;;17.70;99.90;;;;;;5033083;28;20391;-63
2023/10/09 09:55:14;;;;;;;16.60;7.25;;;17.80;99.90;;;;;;5033033;28;20136;-64
2023/10/09 09:57:41;;;;;;;18.48;6.53;;;17.70;99.90;;;;;;5037015;28;20045;-63
2023/10/09 10:00:27;;;;;;;13.52;5.75;;;17.70;99.90;;;;;;5053086;28;20052;-65
2023/10/09 10:02:57;;;;;;;15.45;6.30;;;17.80;99.90;;;;;;5035216;28;20090;-65
2023/10/09 10:05:29;;;;;;;18.17;6.60;;;17.70;99.90;;;;;;5051887;28;20441;-66
2023/10/09 10:08:00;;;;;;;13.38;6.30;;;17.70;99.90;;;;;;5050827;28;20114;-64
2023/10/09 10:11:04;;;;;;;13.00;6.25;;;17.70;99.90;;;;;;5053340;28;20052;-64
2023/10/09 10:13:58;;;;;;;16.45;6.18;;;17.70;99.90;;;;;;5053784;28;20045;-64
2023/10/09 10:16:34;;;;;;;11.82;5.82;;;17.90;99.90;;;;;;5035917;28;20621;-64
2023/10/09 10:21:41;;;;;;;13.25;6.68;;;17.90;99.90;;;;;;5033716;28;20441;-65
2023/10/09 10:24:29;;;;;;;14.75;6.50;;;18.00;99.90;;;;;;5044664;28;20098;-64
2023/10/09 10:30:13;;;;;;;14.55;6.72;;;18.20;99.90;;;;;;5034527;28;20310;-64
2023/10/09 10:32:52;;;;;;;13.40;6.95;;;18.10;99.90;;;;;;5035031;28;20049;-63
2023/10/09 10:35:21;;;;;;;13.30;6.25;;;18.20;99.90;;;;;;5016634;28;20057;-66
2023/10/09 10:38:08;;;;;;;12.48;6.30;;;18.30;99.90;;;;;;5021781;28;20118;-64
2023/10/09 10:40:38;;;;;;;12.00;5.78;;;18.40;99.90;;;;;;5054012;28;20047;-65
2023/10/09 10:43:19;;;;;;;16.52;6.22;;;18.30;99.90;;;;;;5053975;28;20045;-64
2023/10/09 10:45:45;;;;;;;13.23;6.07;;;18.40;99.90;;;;;;5037485;28;20352;-65
2023/10/09 10:48:30;;;;;;;14.02;5.78;;;18.50;99.90;;;;;;5041413;28;20083;-63
2023/10/09 10:50:57;;;;;;;14.18;5.40;;;18.50;99.90;;;;;;5054215;28;20044;-64
2023/10/09 10:53:28;;;;;;;11.95;6.35;;;18.70;99.90;;;;;;5051786;28;20650;-65
2023/10/09 10:56:17;;;;;;;13.15;5.68;;;18.60;99.90;;;;;;5034600;28;20044;-65
2023/10/09 11:01:50;;;;;;;10.95;5.80;;;18.60;99.90;;;;;;5039187;28;20127;-64
2023/10/09 11:07:43;;;;;;;11.40;5.30;;;18.80;99.90;;;;;;5052139;28;20049;-64
2023/10/09 11:10:27;;;;;;;10.77;6.00;;;18.80;99.90;;;;;;4996369;28;20053;-63
2023/10/09 11:12:55;;;;;;;11.40;6.55;;;18.70;99.90;;;;;;5032120;28;20387;-63
2023/10/09 11:15:46;;;;;;;15.48;6.95;;;18.70;99.90;;;;;;5031503;28;20366;-64
2023/10/09 11:18:20;;;;;;;15.30;6.95;;;18.70;99.90;;;;;;5038105;28;20056;-65
2023/10/09 11:20:56;;;;;;;15.73;6.10;;;18.80;99.90;;;;;;5052355;28;20052;-65
2023/10/09 11:29:23;;;;;;;12.30;6.65;;;18.70;99.90;;;;;;5039036;28;20328;-66
2023/10/09 11:32:00;;;;;;;12.88;5.90;;;18.60;99.90;;;;;;5031388;28;20057;-63
2023/10/09 11:34:31;;;;;;;15.70;7.28;;;18.60;99.90;;;;;;5032762;28;20053;-65
2023/10/09 11:37:15;;;;;;;14.70;6.38;;;18.60;99.90;;;;;;5048198;28;20045;-63
2023/10/09 11:39:50;;;;;;;16.05;6.35;;;18.60;99.90;;;;;;5052186;28;20056;-65
2023/10/09 11:42:48;;;;;;;15.73;7.03;;;18.80;99.90;;;;;;5052494;28;20077;-65
2023/10/09 11:45:29;;;;;;;18.25;6.47;;;18.80;99.90;;;;;;5040087;28;20122;-63
2023/10/09 11:48:00;;;;;;;13.63;6.85;;;19.10;99.90;;;;;;5036832;28;20048;-64
2023/10/09 11:50:53;;;;;;;12.52;6.22;;;19.10;99.90;;;;;;5051815;28;20052;-65
2023/10/09 11:55:50;;;;;;;13.15;6.35;;;19.30;99.90;;;;;;5051926;28;20045;-65
2023/10/09 11:58:22;;;;;;;13.57;5.70;;;19.40;99.90;;;;;;5050898;28;20479;-65
2023/10/09 12:00:59;;;;;;;9.07;5.00;;;19.60;99.90;;;;;;5052116;28;20045;-65
2023/10/09 12:03:29;;;;;;;12.85;5.40;;;19.70;99.90;;;;;;5052061;28;20052;-65
2023/10/09 12:05:57;;;;;;;10.82;5.43;;;19.80;99.90;;;;;;5051901;28;20053;-65
2023/10/09 12:08:28;;;;;;;12.88;5.82;;;19.70;99.90;;;;;;5050813;28;20079;-64
2023/10/09 12:10:55;;;;;;;15.38;6.53;;;19.70;99.90;;;;;;5051904;28;20385;-64
2023/10/09 12:13:25;;;;;;;16.17;6.10;;;19.80;99.90;;;;;;5051269;28;20053;-65
2023/10/09 12:15:53;;;;;;;14.13;5.65;;;19.80;99.90;;;;;;5052227;28;20041;-65
2023/10/09 12:18:23;;;;;;;12.73;5.22;;;19.80;99.90;;;;;;5043818;28;20144;-64
2023/10/09 12:20:51;;;;;;;11.30;6.70;;;19.70;99.90;;;;;;5032501;28;20435;-65
2023/10/09 12:23:22;;;;;;;9.48;5.07;;;19.70;99.90;;;;;;5031981;28;20042;-64
2023/10/09 12:25:50;;;;;;;9.73;4.78;;;19.60;99.90;;;;;;5032606;28;20045;-63
2023/10/09 12:28:20;;;;;;;9.27;4.45;;;19.50;99.90;;;;;;5042640;28;20100;-66
2023/10/09 12:30:50;;;;;;;10.65;3.83;;;19.60;99.90;;;;;;5055663;28;20060;-64
2023/10/09 12:33:27;;;;;;;8.50;3.78;;;19.60;99.90;;;;;;5055827;28;20048;-66
2023/10/09 12:36:01;;;;;;;10.45;4.20;;;19.70;99.90;;;;;;5055183;28;20053;-64
2023/10/09 12:38:31;;;;;;;8.02;4.18;;;19.80;99.90;;;;;;5045778;28;20053;-65
2023/10/09 12:41:19;;;;;;;9.10;3.65;;;19.70;99.90;;;;;;5034971;28;20049;-65
2023/10/09 12:43:48;;;;;;;12.32;4.25;;;19.80;99.90;;;;;;5035900;28;20053;-63
2023/10/09 12:46:17;;;;;;;9.30;4.03;;;19.80;99.90;;;;;;5055343;28;20052;-64
2023/10/09 12:48:47;;;;;;;6.82;3.70;;;19.90;99.90;;;;;;5042220;28;20475;-65
2023/10/09 12:51:17;;;;;;;10.85;4.10;;;19.90;99.90;;;;;;5017497;28;20056;-63
2023/10/09 12:53:56;;;;;;;8.23;3.83;;;19.80;99.90;;;;;;5034489;28;20431;-65
2023/10/09 12:56:32;;;;;;;10.23;4.00;;;19.80;99.90;;;;;;5017362;28;20132;-63
2023/10/09 12:59:04;;;;;;;8.75;3.83;;;19.70;99.90;;;;;;5047315;28;20055;-65
2023/10/09 13:01:42;;;;;;;8.70;3.88;;;19.70;99.90;;;;;;5054314;28;20051;-64
2023/10/09 13:04:12;;;;;;;9.75;4.22;;;19.70;99.90;;;;;;5054131;28;20143;-64
2023/10/09 13:06:43;;;;;;;10.32;4.03;;;19.60;99.90;;;;;;5053903;28;20126;-64
2023/10/09 13:09:11;;;;;;;8.20;4.00;;;19.60;99.90;;;;;;5038693;28;20056;-66
2023/10/09 13:11:37;;;;;;;9.75;4.45;;;19.60;99.90;;;;;;5033852;28;20425;-66
2023/10/09 13:14:11;;;;;;;10.85;4.50;;;19.50;99.90;;;;;;5033482;28;20058;-65
2023/10/09 13:16:37;;;;;;;12.15;5.00;;;19.50;99.90;;;;;;5016076;28;20150;-65
2023/10/09 13:19:09;;;;;;;10.45;4.47;;;19.40;99.90;;;;;;5046608;28;20045;-65
2023/10/09 13:21:42;;;;;;;9.50;4.68;;;19.40;99.90;;;;;;5053540;28;20053;-65
2023/10/09 13:24:15;;;;;;;12.30;4.72;;;19.40;99.90;;;;;;5053354;28;20049;-64
2023/10/09 13:26:45;;;;;;;11.23;4.95;;;19.40;99.90;;;;;;5053298;28;20087;-63
2023/10/09 13:29:13;;;;;;;19.55;5.38;;;19.30;99.90;;;;;;5037950;28;20072;-64
2023/10/09 13:31:46;;;;;;;8.73;4.10;;;19.30;99.90;;;;;;5015559;28;20041;-64
2023/10/09 13:34:14;;;;;;;10.32;4.57;;;19.10;99.90;;;;;;5033367;28;20049;-64
2023/10/09 13:36:52;;;;;;;7.80;3.50;;;19.20;99.90;;;;;;5033520;28;20049;-62
2023/10/09 13:39:26;;;;;;;8.77;3.80;;;19.10;99.90;;;;;;5047749;28;20049;-64
2023/10/09 13:41:59;;;;;;;8.35;3.20;;;19.00;99.90;;;;;;5052407;28;20056;-63
2023/10/09 13:44:27;;;;;;;8.05;3.47;;;19.10;99.90;;;;;;5053021;28;20498;-65
2023/10/09 13:47:01;;;;;;;8.07;3.75;;;19.10;99.90;;;;;;5035350;28;20064;-64
2023/10/09 13:49:30;;;;;;;8.20;3.53;;;19.00;99.90;;;;;;5036736;28;20113;-64
2023/10/09 13:51:57;;;;;;;9.65;3.72;;;19.00;99.90;;;;;;5033408;28;20053;-65
2023/10/09 13:57:06;;;;;;;7.50;3.67;;;19.00;99.90;;;;;;5033481;28;20402;-64
2023/10/09 13:59:34;;;;;;;8.00;3.97;;;19.00;99.90;;;;;;5032703;28;20087;-65
2023/10/09 14:02:08;;;;;;;9.50;4.03;;;18.90;99.90;;;;;;5053709;28;20045;-64
2023/10/09 14:04:35;;;;;;;9.20;3.60;;;18.90;99.90;;;;;;5053710;28;20064;-63
2023/10/09 14:07:05;;;;;;;11.00;3.83;;;18.90;99.90;;;;;;5035622;28;20055;-63
2023/10/09 14:09:31;;;;;;;9.73;3.92;;;18.90;99.90;;;;;;5036265;28;20053;-64
2023/10/09 14:12:09;;;;;;;9.45;3.58;;;18.80;99.90;;;;;;5033136;28;20041;-64
2023/10/09 14:14:48;;;;;;;;;;;18.90;99.90;;;;;;5016655;28;20084;-63
2023/10/09 14:17:19;;;;;;;7.35;3.40;;;18.90;99.90;;;;;;5035457;28;20333;-63
2023/10/09 14:19:48;;;;;;;8.68;4.18;;;19.00;99.90;;;;;;5048583;28;20052;-64
2023/10/09 14:22:17;;;;;;;7.72;3.72;;;19.00;99.90;;;;;;5052399;28;20063;-63
2023/10/09 14:24:45;;;;;;;8.75;3.85;;;19.00;99.90;;;;;;5053111;28;20045;-65
2023/10/09 14:27:17;;;;;;;11.35;5.13;;;19.00;99.90;;;;;;5046656;28;20052;-64
2023/10/09 14:29:59;;;;;;;11.20;4.57;;;18.90;99.90;;;;;;5039518;28;20053;-63
2023/10/09 14:32:33;;;;;;;9.73;4.38;;;19.00;99.90;;;;;;5033699;28;20469;-63
2023/10/09 14:35:03;;;;;;;10.13;4.90;;;19.00;99.90;;;;;;5042245;28;20056;-64
2023/10/09 14:37:39;;;;;;;11.77;5.70;;;18.90;99.90;;;;;;5051774;28;20040;-64
2023/10/09 14:40:12;;;;;;;17.17;5.78;;;19.00;99.90;;;;;;5015870;28;20056;-63
2023/10/09 14:42:43;;;;;;;14.07;5.90;;;18.90;99.90;;;;;;5032160;28;20061;-63
2023/10/09 14:45:15;;;;;;;12.45;5.82;;;18.90;99.90;;;;;;5045388;28;20044;-64
2023/10/09 14:47:42;;;;;;;15.30;6.90;;;18.80;99.90;;;;;;5049817;28;20048;-64
2023/10/09 14:50:09;;;;;;;15.65;6.15;;;18.80;99.90;;;;;;5033076;28;20049;-63
2023/10/09 14:52:39;;;;;;;13.23;6.72;;;18.80;99.90;;;;;;5046055;28;20064;-65
2023/10/09 14:55:06;;;;;;;15.95;7.13;;;18.80;99.90;;;;;;5052100;28;20140;-63
2023/10/09 14:57:33;;;;;;;15.30;6.43;;;18.80;99.90;;;;;;5051267;28;20053;-64
2023/10/09 15:00:13;;;;;;;15.68;6.18;;;18.90;99.90;;;;;;5052739;28;20128;-65
2023/10/09 15:02:40;;;;;;;14.30;6.15;;;18.90;99.90;;;;;;5052781;28;20049;-64
2023/10/09 15:05:11;;;;;;;16.58;7.00;;;18.80;99.90;;;;;;5051891;28;20048;-62
2023/10/09 15:07:38;;;;;;;15.40;7.45;;;18.80;99.90;;;;;;5051155;28;20372;-64
2023/10/09 15:10:06;;;;;;;16.85;6.18;;;18.80;99.90;;;;;;5033465;28;20045;-65
2023/10/09 15:12:32;;;;;;;12.35;5.78;;;18.80;99.90;;;;;;5033639;28;20053;-64
2023/10/09 15:15:00;;;;;;;13.57;5.95;;;18.80;99.90;;;;;;5033829;28;20057;-63
2023/10/09 15:17:27;;;;;;;14.02;6.47;;;18.80;99.90;;;;;;5027160;28;20106;-66
2023/10/09 15:19:56;;;;;;;15.98;7.07;;;18.70;99.90;;;;;;5051633;28;20056;-63
2023/10/09 15:22:22;;;;;;;13.90;6.65;;;18.60;99.90;;;;;;5052517;28;20464;-63
2023/10/09 15:24:49;;;;;;;11.73;5.53;;;18.60;99.90;;;;;;5051785;28;20527;-63
2023/10/09 15:27:15;;;;;;;16.42;5.75;;;18.50;99.90;;;;;;5052628;28;20057;-65
2023/10/09 15:29:44;;;;;;;13.68;6.05;;;18.50;99.90;;;;;;5033689;28;20515;-64
2023/10/09 15:32:22;;;;;;;15.63;6.45;;;18.50;99.90;;;;;;5031971;28;20068;-64
2023/10/09 15:34:48;;;;;;;15.65;6.47;;;18.40;99.90;;;;;;5032544;28;20053;-65
2023/10/09 15:37:17;;;;;;;12.10;5.40;;;18.40;99.90;;;;;;5032372;28;20049;-63
2023/10/09 15:39:43;;;;;;;14.27;5.43;;;18.40;99.90;;;;;;5032860;28;20060;-65
2023/10/09 15:42:13;;;;;;;13.30;6.18;;;18.40;99.90;;;;;;5052347;28;20662;-64